Terminal Aerodrome Forecast
Issued by NWS Boston, MA

Home | Current Version | Previous Version | Text Only | Print | Product List | Glossary On
Versions: 1 2 3 4 5 6 7 8 9 10 11 12 13 14 15 16 17 18 19 20 21 22 23 24 25 26 27 28 29 30 31 32 33 34 35 36 37 38 39 40 41 42 43 44
000
FTUS41 KBOX 212005 AAA
TAFPVD
TAF AMD
KPVD 212005Z 2120/2218 15007KT 6SM BR BKN006
     FM220000 VRB03KT 4SM BR BKN005
     FM220500 25005KT P6SM BKN008
     FM221000 26006KT P6SM SCT020
     FM221200 26007KT P6SM SCT250
     FM221500 28011G19KT P6SM SCT250=

USA.gov is the U.S. government's official web portal to all federal, state and local government web resources and services.